sensor_id;sensor_type;location;lat;lon;timestamp;temperature;humidity
24408;DHT22;12542;50.924;4.516;2023-04-01T00:00:56;11.70;99.90
24408;DHT22;12542;50.924;4.516;2023-04-01T00:03:23;11.60;99.90
24408;DHT22;12542;50.924;4.516;2023-04-01T00:05:50;11.60;99.90
24408;DHT22;12542;50.924;4.516;2023-04-01T00:08:15;11.70;99.90
24408;DHT22;12542;50.924;4.516;2023-04-01T00:10:41;11.70;99.90
24408;DHT22;12542;50.924;4.516;2023-04-01T00:13:07;11.70;99.90
24408;DHT22;12542;50.924;4.516;2023-04-01T00:15:33;11.70;99.90
24408;DHT22;12542;50.924;4.516;2023-04-01T00:17:59;11.90;99.90
24408;DHT22;12542;50.924;4.516;2023-04-01T00:20:26;11.90;99.90
24408;DHT22;12542;50.924;4.516;2023-04-01T00:22:52;11.90;99.90
24408;DHT22;12542;50.924;4.516;2023-04-01T00:25:18;11.90;99.90
24408;DHT22;12542;50.924;4.516;2023-04-01T00:27:44;11.80;99.90
24408;DHT22;12542;50.924;4.516;2023-04-01T00:30:11;11.70;99.90
24408;DHT22;12542;50.924;4.516;2023-04-01T00:32:37;11.80;99.90
24408;DHT22;12542;50.924;4.516;2023-04-01T00:35:03;11.70;99.90
24408;DHT22;12542;50.924;4.516;2023-04-01T00:37:35;11.70;99.90
24408;DHT22;12542;50.924;4.516;2023-04-01T00:40:00;11.70;99.90
24408;DHT22;12542;50.924;4.516;2023-04-01T00:42:26;11.60;99.90
24408;DHT22;12542;50.924;4.516;2023-04-01T00:44:53;11.70;99.90
24408;DHT22;12542;50.924;4.516;2023-04-01T00:47:20;11.80;99.90
24408;DHT22;12542;50.924;4.516;2023-04-01T00:49:49;11.80;99.90
24408;DHT22;12542;50.924;4.516;2023-04-01T00:52:19;11.80;99.90
24408;DHT22;12542;50.924;4.516;2023-04-01T00:54:47;11.90;99.90
24408;DHT22;12542;50.924;4.516;2023-04-01T00:57:20;11.70;99.90
24408;DHT22;12542;50.924;4.516;2023-04-01T00:59:49;11.60;99.90
24408;DHT22;12542;50.924;4.516;2023-04-01T01:02:18;11.60;99.90
24408;DHT22;12542;50.924;4.516;2023-04-01T01:04:44;11.50;99.90
24408;DHT22;12542;50.924;4.516;2023-04-01T01:29:34;11.60;99.90
24408;DHT22;12542;50.924;4.516;2023-04-01T01:37:26;11.70;99.90
24408;DHT22;12542;50.924;4.516;2023-04-01T01:40:04;11.70;99.90
24408;DHT22;12542;50.924;4.516;2023-04-01T01:42:34;11.80;99.90
24408;DHT22;12542;50.924;4.516;2023-04-01T01:45:02;11.60;99.90
24408;DHT22;12542;50.924;4.516;2023-04-01T01:47:29;11.60;99.90
24408;DHT22;12542;50.924;4.516;2023-04-01T01:49:55;11.60;99.90
24408;DHT22;12542;50.924;4.516;2023-04-01T01:52:23;11.60;99.90
24408;DHT22;12542;50.924;4.516;2023-04-01T01:54:49;11.60;99.90
24408;DHT22;12542;50.924;4.516;2023-04-01T01:57:16;11.70;99.90
24408;DHT22;12542;50.924;4.516;2023-04-01T01:59:43;11.70;99.90
24408;DHT22;12542;50.924;4.516;2023-04-01T02:02:10;11.30;99.90
24408;DHT22;12542;50.924;4.516;2023-04-01T02:04:39;11.40;99.90
24408;DHT22;12542;50.924;4.516;2023-04-01T02:07:13;11.40;99.90
24408;DHT22;12542;50.924;4.516;2023-04-01T02:09:41;11.40;99.90
24408;DHT22;12542;50.924;4.516;2023-04-01T02:12:10;11.20;99.90
24408;DHT22;12542;50.924;4.516;2023-04-01T02:17:22;11.00;99.90
24408;DHT22;12542;50.924;4.516;2023-04-01T02:20:15;11.10;99.90
24408;DHT22;12542;50.924;4.516;2023-04-01T02:22:49;11.10;99.90
24408;DHT22;12542;50.924;4.516;2023-04-01T02:25:22;11.10;99.90
24408;DHT22;12542;50.924;4.516;2023-04-01T02:27:49;11.00;99.90
24408;DHT22;12542;50.924;4.516;2023-04-01T02:30:16;11.10;99.90
24408;DHT22;12542;50.924;4.516;2023-04-01T02:32:43;11.20;99.90
24408;DHT22;12542;50.924;4.516;2023-04-01T02:35:11;11.20;99.90
24408;DHT22;12542;50.924;4.516;2023-04-01T02:37:39;11.10;99.90
24408;DHT22;12542;50.924;4.516;2023-04-01T02:40:10;11.10;99.90
24408;DHT22;12542;50.924;4.516;2023-04-01T02:42:36;11.10;99.90
24408;DHT22;12542;50.924;4.516;2023-04-01T02:45:03;11.10;99.90
24408;DHT22;12542;50.924;4.516;2023-04-01T02:47:29;11.10;99.90
24408;DHT22;12542;50.924;4.516;2023-04-01T02:49:55;11.20;99.90
24408;DHT22;12542;50.924;4.516;2023-04-01T02:52:24;11.10;99.90
24408;DHT22;12542;50.924;4.516;2023-04-01T02:54:50;11.20;99.90
24408;DHT22;12542;50.924;4.516;2023-04-01T02:57:16;11.10;99.90
24408;DHT22;12542;50.924;4.516;2023-04-01T02:59:42;11.00;99.90
24408;DHT22;12542;50.924;4.516;2023-04-01T03:02:07;11.10;99.90
24408;DHT22;12542;50.924;4.516;2023-04-01T03:04:33;11.20;99.90
24408;DHT22;12542;50.924;4.516;2023-04-01T03:06:59;11.00;99.90
24408;DHT22;12542;50.924;4.516;2023-04-01T03:09:25;11.10;99.90
24408;DHT22;12542;50.924;4.516;2023-04-01T03:11:50;11.20;99.90
24408;DHT22;12542;50.924;4.516;2023-04-01T03:14:16;11.00;99.90
24408;DHT22;12542;50.924;4.516;2023-04-01T03:16:42;11.00;99.90
24408;DHT22;12542;50.924;4.516;2023-04-01T03:19:07;10.90;99.90
24408;DHT22;12542;50.924;4.516;2023-04-01T03:21:33;10.90;99.90
24408;DHT22;12542;50.924;4.516;2023-04-01T03:23:59;11.00;99.90
24408;DHT22;12542;50.924;4.516;2023-04-01T03:26:24;10.80;99.90
24408;DHT22;12542;50.924;4.516;2023-04-01T03:28:52;10.90;99.90
24408;DHT22;12542;50.924;4.516;2023-04-01T03:31:18;11.00;99.90
24408;DHT22;12542;50.924;4.516;2023-04-01T03:33:44;10.90;99.90
24408;DHT22;12542;50.924;4.516;2023-04-01T03:36:10;10.90;99.90
24408;DHT22;12542;50.924;4.516;2023-04-01T03:38:39;10.90;99.90
24408;DHT22;12542;50.924;4.516;2023-04-01T03:41:05;10.90;99.90
24408;DHT22;12542;50.924;4.516;2023-04-01T03:43:32;10.90;99.90
24408;DHT22;12542;50.924;4.516;2023-04-01T03:45:57;10.90;99.90
24408;DHT22;12542;50.924;4.516;2023-04-01T03:48:23;10.80;99.90
24408;DHT22;12542;50.924;4.516;2023-04-01T03:50:50;10.90;99.90
24408;DHT22;12542;50.924;4.516;2023-04-01T03:53:16;10.70;99.90
24408;DHT22;12542;50.924;4.516;2023-04-01T03:55:42;10.80;99.90
24408;DHT22;12542;50.924;4.516;2023-04-01T03:58:08;10.90;99.90
24408;DHT22;12542;50.924;4.516;2023-04-01T04:00:35;10.90;99.90
24408;DHT22;12542;50.924;4.516;2023-04-01T04:03:00;10.90;99.90
24408;DHT22;12542;50.924;4.516;2023-04-01T04:05:26;10.90;99.90
24408;DHT22;12542;50.924;4.516;2023-04-01T04:07:53;10.90;99.90
24408;DHT22;12542;50.924;4.516;2023-04-01T04:10:19;10.90;99.90
24408;DHT22;12542;50.924;4.516;2023-04-01T04:12:45;10.90;99.90
24408;DHT22;12542;50.924;4.516;2023-04-01T04:15:11;11.00;99.90
24408;DHT22;12542;50.924;4.516;2023-04-01T04:17:37;11.00;99.90
24408;DHT22;12542;50.924;4.516;2023-04-01T04:20:04;10.80;99.90
24408;DHT22;12542;50.924;4.516;2023-04-01T04:22:32;10.90;99.90
24408;DHT22;12542;50.924;4.516;2023-04-01T04:24:58;10.80;99.90
24408;DHT22;12542;50.924;4.516;2023-04-01T04:27:23;10.80;99.90
24408;DHT22;12542;50.924;4.516;2023-04-01T04:29:49;10.90;99.90
24408;DHT22;12542;50.924;4.516;2023-04-01T04:32:15;11.00;99.90
24408;DHT22;12542;50.924;4.516;2023-04-01T04:34:40;11.00;99.90
24408;DHT22;12542;50.924;4.516;2023-04-01T04:37:06;11.00;99.90
24408;DHT22;12542;50.924;4.516;2023-04-01T04:39:32;10.90;99.90
24408;DHT22;12542;50.924;4.516;2023-04-01T04:41:57;10.90;99.90
24408;DHT22;12542;50.924;4.516;2023-04-01T04:44:23;10.80;99.90
24408;DHT22;12542;50.924;4.516;2023-04-01T04:46:49;10.80;99.90
24408;DHT22;12542;50.924;4.516;2023-04-01T04:49:14;10.90;99.90
24408;DHT22;12542;50.924;4.516;2023-04-01T04:51:40;11.00;99.90
24408;DHT22;12542;50.924;4.516;2023-04-01T04:54:09;10.80;99.90
24408;DHT22;12542;50.924;4.516;2023-04-01T04:56:34;10.80;99.90
24408;DHT22;12542;50.924;4.516;2023-04-01T04:59:01;10.90;99.90
24408;DHT22;12542;50.924;4.516;2023-04-01T05:01:27;10.90;99.90
24408;DHT22;12542;50.924;4.516;2023-04-01T05:03:53;10.80;99.90
24408;DHT22;12542;50.924;4.516;2023-04-01T05:06:20;10.90;99.90
24408;DHT22;12542;50.924;4.516;2023-04-01T05:08:46;10.70;99.90
24408;DHT22;12542;50.924;4.516;2023-04-01T05:11:17;10.70;99.90
24408;DHT22;12542;50.924;4.516;2023-04-01T05:13:44;10.80;99.90
24408;DHT22;12542;50.924;4.516;2023-04-01T05:16:15;10.80;99.90
24408;DHT22;12542;50.924;4.516;2023-04-01T05:18:43;10.60;99.90
24408;DHT22;12542;50.924;4.516;2023-04-01T05:21:11;10.60;99.90
24408;DHT22;12542;50.924;4.516;2023-04-01T05:23:37;10.60;99.90
24408;DHT22;12542;50.924;4.516;2023-04-01T05:26:05;10.70;99.90
24408;DHT22;12542;50.924;4.516;2023-04-01T05:28:31;10.70;99.90
24408;DHT22;12542;50.924;4.516;2023-04-01T05:30:59;10.70;99.90
24408;DHT22;12542;50.924;4.516;2023-04-01T05:33:26;10.80;99.90
24408;DHT22;12542;50.924;4.516;2023-04-01T05:35:52;10.80;99.90
24408;DHT22;12542;50.924;4.516;2023-04-01T05:38:18;10.70;99.90
24408;DHT22;12542;50.924;4.516;2023-04-01T05:40:43;10.60;99.90
24408;DHT22;12542;50.924;4.516;2023-04-01T05:43:11;10.60;99.90
24408;DHT22;12542;50.924;4.516;2023-04-01T05:45:37;10.70;99.90
24408;DHT22;12542;50.924;4.516;2023-04-01T05:48:05;10.60;99.90
24408;DHT22;12542;50.924;4.516;2023-04-01T05:50:31;10.60;99.90
24408;DHT22;12542;50.924;4.516;2023-04-01T05:52:57;10.80;99.90
24408;DHT22;12542;50.924;4.516;2023-04-01T05:55:27;10.60;99.90
24408;DHT22;12542;50.924;4.516;2023-04-01T05:57:53;10.80;99.90
24408;DHT22;12542;50.924;4.516;2023-04-01T06:00:20;10.80;99.90
24408;DHT22;12542;50.924;4.516;2023-04-01T06:02:46;10.80;99.90
24408;DHT22;12542;50.924;4.516;2023-04-01T06:07:44;10.80;99.90
24408;DHT22;12542;50.924;4.516;2023-04-01T06:10:17;10.80;99.90
24408;DHT22;12542;50.924;4.516;2023-04-01T06:15:35;10.70;99.90
24408;DHT22;12542;50.924;4.516;2023-04-01T06:18:41;10.80;99.90
24408;DHT22;12542;50.924;4.516;2023-04-01T06:35:14;10.70;99.90
24408;DHT22;12542;50.924;4.516;2023-04-01T06:54:09;10.70;99.90
24408;DHT22;12542;50.924;4.516;2023-04-01T06:56:37;10.50;99.90
24408;DHT22;12542;50.924;4.516;2023-04-01T06:59:14;10.60;99.90
24408;DHT22;12542;50.924;4.516;2023-04-01T07:04:23;10.80;99.90
24408;DHT22;12542;50.924;4.516;2023-04-01T07:06:57;10.80;99.90
24408;DHT22;12542;50.924;4.516;2023-04-01T07:09:32;10.70;99.90
24408;DHT22;12542;50.924;4.516;2023-04-01T07:12:02;10.70;99.90
24408;DHT22;12542;50.924;4.516;2023-04-01T07:14:36;10.50;99.90
24408;DHT22;12542;50.924;4.516;2023-04-01T07:17:14;10.40;99.90
24408;DHT22;12542;50.924;4.516;2023-04-01T07:24:49;10.70;99.90
24408;DHT22;12542;50.924;4.516;2023-04-01T07:27:15;10.60;99.90
24408;DHT22;12542;50.924;4.516;2023-04-01T07:29:41;10.60;99.90
24408;DHT22;12542;50.924;4.516;2023-04-01T07:41:18;10.80;99.90
24408;DHT22;12542;50.924;4.516;2023-04-01T07:44:17;10.70;99.90
24408;DHT22;12542;50.924;4.516;2023-04-01T07:47:19;10.70;99.90
24408;DHT22;12542;50.924;4.516;2023-04-01T07:50:01;10.70;99.90
24408;DHT22;12542;50.924;4.516;2023-04-01T07:52:43;10.80;99.90
24408;DHT22;12542;50.924;4.516;2023-04-01T08:01:06;10.90;99.90
24408;DHT22;12542;50.924;4.516;2023-04-01T08:06:06;11.00;99.90
24408;DHT22;12542;50.924;4.516;2023-04-01T08:13:53;11.10;99.90
24408;DHT22;12542;50.924;4.516;2023-04-01T08:16:37;11.10;99.90
24408;DHT22;12542;50.924;4.516;2023-04-01T08:21:49;11.10;99.90
24408;DHT22;12542;50.924;4.516;2023-04-01T08:24:39;11.20;99.90
24408;DHT22;12542;50.924;4.516;2023-04-01T08:27:16;11.40;99.90
24408;DHT22;12542;50.924;4.516;2023-04-01T08:32:20;11.70;99.90
24408;DHT22;12542;50.924;4.516;2023-04-01T08:35:18;11.60;99.90
24408;DHT22;12542;50.924;4.516;2023-04-01T08:37:42;11.60;99.90
24408;DHT22;12542;50.924;4.516;2023-04-01T08:40:36;11.60;99.90
24408;DHT22;12542;50.924;4.516;2023-04-01T08:59:19;11.10;99.90
24408;DHT22;12542;50.924;4.516;2023-04-01T09:02:05;11.40;99.90
24408;DHT22;12542;50.924;4.516;2023-04-01T09:08:11;11.30;99.90
24408;DHT22;12542;50.924;4.516;2023-04-01T09:22:25;11.60;99.90
24408;DHT22;12542;50.924;4.516;2023-04-01T09:27:37;11.70;99.90
24408;DHT22;12542;50.924;4.516;2023-04-01T09:38:57;11.80;99.90
24408;DHT22;12542;50.924;4.516;2023-04-01T09:41:48;11.70;99.90
24408;DHT22;12542;50.924;4.516;2023-04-01T09:44:41;11.70;99.90
24408;DHT22;12542;50.924;4.516;2023-04-01T10:00:08;11.60;99.90
24408;DHT22;12542;50.924;4.516;2023-04-01T10:03:10;11.70;99.90
24408;DHT22;12542;50.924;4.516;2023-04-01T10:14:22;11.80;99.90
24408;DHT22;12542;50.924;4.516;2023-04-01T10:36:48;12.00;99.90
24408;DHT22;12542;50.924;4.516;2023-04-01T10:39:37;12.20;99.90
24408;DHT22;12542;50.924;4.516;2023-04-01T10:51:11;12.60;99.90
24408;DHT22;12542;50.924;4.516;2023-04-01T10:56:40;12.70;99.90
24408;DHT22;12542;50.924;4.516;2023-04-01T11:02:30;12.70;99.90
24408;DHT22;12542;50.924;4.516;2023-04-01T11:11:23;12.80;99.90
24408;DHT22;12542;50.924;4.516;2023-04-01T11:39:00;12.10;99.90
24408;DHT22;12542;50.924;4.516;2023-04-01T11:41:41;12.10;99.90
24408;DHT22;12542;50.924;4.516;2023-04-01T11:44:25;12.00;99.90
24408;DHT22;12542;50.924;4.516;2023-04-01T11:46:56;12.00;99.90
24408;DHT22;12542;50.924;4.516;2023-04-01T11:55:19;12.40;99.90
24408;DHT22;12542;50.924;4.516;2023-04-01T12:04:06;12.50;99.90
24408;DHT22;12542;50.924;4.516;2023-04-01T12:09:20;12.20;99.90
24408;DHT22;12542;50.924;4.516;2023-04-01T12:31:59;12.20;99.90
24408;DHT22;12542;50.924;4.516;2023-04-01T12:37:03;12.10;99.90
24408;DHT22;12542;50.924;4.516;2023-04-01T12:39:57;11.90;99.90
24408;DHT22;12542;50.924;4.516;2023-04-01T12:42:35;11.90;99.90
24408;DHT22;12542;50.924;4.516;2023-04-01T12:45:16;11.90;99.90
24408;DHT22;12542;50.924;4.516;2023-04-01T12:48:02;12.30;99.90
24408;DHT22;12542;50.924;4.516;2023-04-01T12:50:48;12.30;99.90
24408;DHT22;12542;50.924;4.516;2023-04-01T12:53:40;12.20;99.90
24408;DHT22;12542;50.924;4.516;2023-04-01T13:07:42;12.30;99.90
24408;DHT22;12542;50.924;4.516;2023-04-01T13:16:11;12.00;99.90
24408;DHT22;12542;50.924;4.516;2023-04-01T13:18:54;12.10;99.90
24408;DHT22;12542;50.924;4.516;2023-04-01T13:21:30;12.00;99.90
24408;DHT22;12542;50.924;4.516;2023-04-01T13:30:00;11.80;99.90
24408;DHT22;12542;50.924;4.516;2023-04-01T13:32:40;11.90;99.90
24408;DHT22;12542;50.924;4.516;2023-04-01T13:43:43;12.40;99.90
24408;DHT22;12542;50.924;4.516;2023-04-01T13:51:40;12.70;99.90
24408;DHT22;12542;50.924;4.516;2023-04-01T14:11:39;12.50;99.90
24408;DHT22;12542;50.924;4.516;2023-04-01T14:14:36;12.40;99.90
24408;DHT22;12542;50.924;4.516;2023-04-01T14:51:33;12.90;99.90
24408;DHT22;12542;50.924;4.516;2023-04-01T14:56:43;12.60;99.90
24408;DHT22;12542;50.924;4.516;2023-04-01T15:01:54;12.90;99.90
24408;DHT22;12542;50.924;4.516;2023-04-01T15:15:40;13.00;99.90
24408;DHT22;12542;50.924;4.516;2023-04-01T15:24:21;12.50;99.90
24408;DHT22;12542;50.924;4.516;2023-04-01T15:27:20;12.40;99.90
24408;DHT22;12542;50.924;4.516;2023-04-01T15:35:57;12.40;99.90
24408;DHT22;12542;50.924;4.516;2023-04-01T15:47:01;12.10;99.90
24408;DHT22;12542;50.924;4.516;2023-04-01T15:57:20;11.80;99.90
24408;DHT22;12542;50.924;4.516;2023-04-01T16:00:06;11.70;99.90
24408;DHT22;12542;50.924;4.516;2023-04-01T16:02:49;11.70;99.90
24408;DHT22;12542;50.924;4.516;2023-04-01T16:05:33;11.60;99.90
24408;DHT22;12542;50.924;4.516;2023-04-01T16:16:36;11.40;99.90
24408;DHT22;12542;50.924;4.516;2023-04-01T16:22:00;11.60;99.90
24408;DHT22;12542;50.924;4.516;2023-04-01T16:24:48;11.60;99.90
24408;DHT22;12542;50.924;4.516;2023-04-01T16:27:34;11.50;99.90
24408;DHT22;12542;50.924;4.516;2023-04-01T16:35:43;11.00;99.90
24408;DHT22;12542;50.924;4.516;2023-04-01T16:46:33;11.20;99.90
24408;DHT22;12542;50.924;4.516;2023-04-01T16:52:03;11.10;99.90
24408;DHT22;12542;50.924;4.516;2023-04-01T17:05:06;10.90;99.90
24408;DHT22;12542;50.924;4.516;2023-04-01T17:10:34;10.90;99.90
24408;DHT22;12542;50.924;4.516;2023-04-01T17:15:41;10.80;99.90
24408;DHT22;12542;50.924;4.516;2023-04-01T17:24:37;11.00;99.90
24408;DHT22;12542;50.924;4.516;2023-04-01T17:29:57;10.90;99.90
24408;DHT22;12542;50.924;4.516;2023-04-01T17:33:00;10.80;99.90
24408;DHT22;12542;50.924;4.516;2023-04-01T17:35:32;10.90;99.90
24408;DHT22;12542;50.924;4.516;2023-04-01T17:45:51;10.80;99.90
24408;DHT22;12542;50.924;4.516;2023-04-01T17:49:19;10.90;99.90
24408;DHT22;12542;50.924;4.516;2023-04-01T18:08:11;10.70;99.90
24408;DHT22;12542;50.924;4.516;2023-04-01T18:16:12;10.50;99.90
24408;DHT22;12542;50.924;4.516;2023-04-01T18:19:06;10.60;99.90
24408;DHT22;12542;50.924;4.516;2023-04-01T18:21:47;10.50;99.90
24408;DHT22;12542;50.924;4.516;2023-04-01T18:24:16;10.60;99.90
24408;DHT22;12542;50.924;4.516;2023-04-01T18:26:49;10.70;99.90
24408;DHT22;12542;50.924;4.516;2023-04-01T18:31:47;10.70;99.90
24408;DHT22;12542;50.924;4.516;2023-04-01T18:36:49;10.70;99.90
24408;DHT22;12542;50.924;4.516;2023-04-01T18:39:36;10.60;99.90
24408;DHT22;12542;50.924;4.516;2023-04-01T18:53:30;10.70;99.90
24408;DHT22;12542;50.924;4.516;2023-04-01T18:56:00;10.60;99.90
24408;DHT22;12542;50.924;4.516;2023-04-01T18:58:46;10.60;99.90
24408;DHT22;12542;50.924;4.516;2023-04-01T19:01:22;10.50;99.90
24408;DHT22;12542;50.924;4.516;2023-04-01T19:06:57;10.50;99.90
24408;DHT22;12542;50.924;4.516;2023-04-01T19:14:57;10.50;99.90
24408;DHT22;12542;50.924;4.516;2023-04-01T19:39:23;10.20;99.90
24408;DHT22;12542;50.924;4.516;2023-04-01T19:44:53;10.20;99.90
24408;DHT22;12542;50.924;4.516;2023-04-01T19:47:44;10.40;99.90
24408;DHT22;12542;50.924;4.516;2023-04-01T19:50:39;10.40;99.90
24408;DHT22;12542;50.924;4.516;2023-04-01T19:53:38;10.40;99.90
24408;DHT22;12542;50.924;4.516;2023-04-01T19:56:46;10.40;99.90
24408;DHT22;12542;50.924;4.516;2023-04-01T19:59:21;10.30;99.90
24408;DHT22;12542;50.924;4.516;2023-04-01T20:02:00;10.30;99.90
24408;DHT22;12542;50.924;4.516;2023-04-01T20:04:49;10.40;99.90
24408;DHT22;12542;50.924;4.516;2023-04-01T20:07:29;10.20;99.90
24408;DHT22;12542;50.924;4.516;2023-04-01T20:10:13;10.20;99.90
24408;DHT22;12542;50.924;4.516;2023-04-01T20:16:09;10.40;99.90
24408;DHT22;12542;50.924;4.516;2023-04-01T20:18:41;10.50;99.90
24408;DHT22;12542;50.924;4.516;2023-04-01T20:21:36;10.50;99.90
24408;DHT22;12542;50.924;4.516;2023-04-01T20:24:26;10.50;99.90
24408;DHT22;12542;50.924;4.516;2023-04-01T20:27:06;10.50;99.90
24408;DHT22;12542;50.924;4.516;2023-04-01T20:29:37;10.40;99.90
24408;DHT22;12542;50.924;4.516;2023-04-01T20:32:26;10.60;99.90
24408;DHT22;12542;50.924;4.516;2023-04-01T20:35:14;10.60;99.90
24408;DHT22;12542;50.924;4.516;2023-04-01T20:38:38;10.60;99.90
24408;DHT22;12542;50.924;4.516;2023-04-01T20:40:47;10.70;99.90
24408;DHT22;12542;50.924;4.516;2023-04-01T20:43:24;10.70;99.90
24408;DHT22;12542;50.924;4.516;2023-04-01T20:46:12;10.70;99.90
24408;DHT22;12542;50.924;4.516;2023-04-01T20:49:28;10.70;99.90
24408;DHT22;12542;50.924;4.516;2023-04-01T20:51:46;10.70;99.90
24408;DHT22;12542;50.924;4.516;2023-04-01T21:11:25;10.70;99.90
24408;DHT22;12542;50.924;4.516;2023-04-01T21:14:01;10.70;99.90
24408;DHT22;12542;50.924;4.516;2023-04-01T21:16:50;10.70;99.90
24408;DHT22;12542;50.924;4.516;2023-04-01T21:22:20;10.70;99.90
24408;DHT22;12542;50.924;4.516;2023-04-01T21:25:17;10.90;99.90
24408;DHT22;12542;50.924;4.516;2023-04-01T21:31:15;10.80;99.90
24408;DHT22;12542;50.924;4.516;2023-04-01T21:34:16;10.90;99.90
24408;DHT22;12542;50.924;4.516;2023-04-01T21:45:02;10.90;99.90
24408;DHT22;12542;50.924;4.516;2023-04-01T22:07:41;10.80;99.90
24408;DHT22;12542;50.924;4.516;2023-04-01T22:13:17;10.80;99.90
24408;DHT22;12542;50.924;4.516;2023-04-01T22:24:19;10.70;99.90
24408;DHT22;12542;50.924;4.516;2023-04-01T22:29:45;10.50;99.90
24408;DHT22;12542;50.924;4.516;2023-04-01T22:32:25;10.60;99.90
24408;DHT22;12542;50.924;4.516;2023-04-01T22:38:33;10.40;99.90
24408;DHT22;12542;50.924;4.516;2023-04-01T22:43:40;10.50;99.90
24408;DHT22;12542;50.924;4.516;2023-04-01T22:51:43;10.60;99.90
24408;DHT22;12542;50.924;4.516;2023-04-01T22:54:27;10.60;99.90
24408;DHT22;12542;50.924;4.516;2023-04-01T22:57:08;10.50;99.90
24408;DHT22;12542;50.924;4.516;2023-04-01T22:59:48;10.50;99.90
24408;DHT22;12542;50.924;4.516;2023-04-01T23:02:23;10.60;99.90
24408;DHT22;12542;50.924;4.516;2023-04-01T23:05:00;10.60;99.90
24408;DHT22;12542;50.924;4.516;2023-04-01T23:08:00;10.60;99.90
24408;DHT22;12542;50.924;4.516;2023-04-01T23:13:12;10.70;99.90
24408;DHT22;12542;50.924;4.516;2023-04-01T23:15:41;10.60;99.90
24408;DHT22;12542;50.924;4.516;2023-04-01T23:18:31;10.50;99.90
24408;DHT22;12542;50.924;4.516;2023-04-01T23:21:50;10.60;99.90
24408;DHT22;12542;50.924;4.516;2023-04-01T23:26:42;10.30;99.90
24408;DHT22;12542;50.924;4.516;2023-04-01T23:29:16;10.50;99.90
24408;DHT22;12542;50.924;4.516;2023-04-01T23:31:44;10.60;99.90
24408;DHT22;12542;50.924;4.516;2023-04-01T23:36:45;10.50;99.90
24408;DHT22;12542;50.924;4.516;2023-04-01T23:41:50;10.40;99.90
24408;DHT22;12542;50.924;4.516;2023-04-01T23:44:17;10.50;99.90
24408;DHT22;12542;50.924;4.516;2023-04-01T23:46:44;10.50;99.90
24408;DHT22;12542;50.924;4.516;2023-04-01T23:49:16;10.40;99.90
24408;DHT22;12542;50.924;4.516;2023-04-01T23:52:02;10.60;99.90
24408;DHT22;12542;50.924;4.516;2023-04-01T23:57:15;10.50;99.90
24408;DHT22;12542;50.924;4.516;2023-04-01T23:59:43;10.40;99.90
